sensor_id;sensor_type;location;lat;lon;timestamp;temperature;humidity
16114;DHT22;8161;-33.910;151.156;2023-12-20T00:01:48;20.10;99.90
16114;DHT22;8161;-33.910;151.156;2023-12-20T00:04:16;20.00;99.90
16114;DHT22;8161;-33.910;151.156;2023-12-20T00:06:43;20.00;99.90
16114;DHT22;8161;-33.910;151.156;2023-12-20T00:09:10;20.10;99.90
16114;DHT22;8161;-33.910;151.156;2023-12-20T00:11:37;20.10;99.90
16114;DHT22;8161;-33.910;151.156;2023-12-20T00:14:05;20.10;99.90
16114;DHT22;8161;-33.910;151.156;2023-12-20T00:16:32;20.10;99.90
16114;DHT22;8161;-33.910;151.156;2023-12-20T00:18:59;20.10;99.90
16114;DHT22;8161;-33.910;151.156;2023-12-20T00:21:26;20.00;99.90
16114;DHT22;8161;-33.910;151.156;2023-12-20T00:23:54;20.00;99.90
16114;DHT22;8161;-33.910;151.156;2023-12-20T00:26:21;20.00;99.90
16114;DHT22;8161;-33.910;151.156;2023-12-20T00:28:48;20.00;99.90
16114;DHT22;8161;-33.910;151.156;2023-12-20T00:31:15;20.10;99.90
16114;DHT22;8161;-33.910;151.156;2023-12-20T00:33:43;20.10;99.90
16114;DHT22;8161;-33.910;151.156;2023-12-20T00:36:10;17.10;99.90
16114;DHT22;8161;-33.910;151.156;2023-12-20T00:38:37;20.10;99.90
16114;DHT22;8161;-33.910;151.156;2023-12-20T00:41:04;20.10;99.90
16114;DHT22;8161;-33.910;151.156;2023-12-20T00:43:32;20.10;99.90
16114;DHT22;8161;-33.910;151.156;2023-12-20T00:45:59;20.10;99.90
16114;DHT22;8161;-33.910;151.156;2023-12-20T00:48:29;20.10;99.90
16114;DHT22;8161;-33.910;151.156;2023-12-20T00:50:58;20.10;99.90
16114;DHT22;8161;-33.910;151.156;2023-12-20T00:53:25;20.10;99.90
16114;DHT22;8161;-33.910;151.156;2023-12-20T00:55:52;20.00;99.90
16114;DHT22;8161;-33.910;151.156;2023-12-20T00:58:20;19.90;99.90
16114;DHT22;8161;-33.910;151.156;2023-12-20T01:00:47;19.90;99.90
16114;DHT22;8161;-33.910;151.156;2023-12-20T01:03:14;19.80;99.90
16114;DHT22;8161;-33.910;151.156;2023-12-20T01:05:41;19.70;99.90
16114;DHT22;8161;-33.910;151.156;2023-12-20T01:08:09;19.70;99.90
16114;DHT22;8161;-33.910;151.156;2023-12-20T01:10:36;19.60;99.90
16114;DHT22;8161;-33.910;151.156;2023-12-20T01:13:06;19.60;99.90
16114;DHT22;8161;-33.910;151.156;2023-12-20T01:15:35;19.60;99.90
16114;DHT22;8161;-33.910;151.156;2023-12-20T01:18:02;19.50;99.90
16114;DHT22;8161;-33.910;151.156;2023-12-20T01:20:32;19.40;99.90
16114;DHT22;8161;-33.910;151.156;2023-12-20T01:23:00;19.40;99.90
16114;DHT22;8161;-33.910;151.156;2023-12-20T01:25:27;19.30;99.90
16114;DHT22;8161;-33.910;151.156;2023-12-20T01:27:54;19.30;99.90
16114;DHT22;8161;-33.910;151.156;2023-12-20T01:30:21;19.30;99.90
16114;DHT22;8161;-33.910;151.156;2023-12-20T01:32:49;19.30;99.90
16114;DHT22;8161;-33.910;151.156;2023-12-20T01:35:16;19.30;99.90
16114;DHT22;8161;-33.910;151.156;2023-12-20T01:37:43;19.40;99.90
16114;DHT22;8161;-33.910;151.156;2023-12-20T01:40:11;19.40;99.90
16114;DHT22;8161;-33.910;151.156;2023-12-20T01:42:38;19.40;99.90
16114;DHT22;8161;-33.910;151.156;2023-12-20T01:45:11;19.40;99.90
16114;DHT22;8161;-33.910;151.156;2023-12-20T01:47:38;19.30;99.90
16114;DHT22;8161;-33.910;151.156;2023-12-20T01:50:06;19.20;99.90
16114;DHT22;8161;-33.910;151.156;2023-12-20T01:52:35;19.30;99.90
16114;DHT22;8161;-33.910;151.156;2023-12-20T01:55:02;19.30;99.90
16114;DHT22;8161;-33.910;151.156;2023-12-20T01:57:33;19.20;99.90
16114;DHT22;8161;-33.910;151.156;2023-12-20T02:00:00;19.30;99.90
16114;DHT22;8161;-33.910;151.156;2023-12-20T02:02:28;19.40;99.90
16114;DHT22;8161;-33.910;151.156;2023-12-20T02:04:57;19.30;99.90
16114;DHT22;8161;-33.910;151.156;2023-12-20T02:07:24;19.40;99.90
16114;DHT22;8161;-33.910;151.156;2023-12-20T02:09:51;19.30;99.90
16114;DHT22;8161;-33.910;151.156;2023-12-20T02:12:19;19.40;99.90
16114;DHT22;8161;-33.910;151.156;2023-12-20T02:14:46;19.40;99.90
16114;DHT22;8161;-33.910;151.156;2023-12-20T02:17:15;19.50;99.90
16114;DHT22;8161;-33.910;151.156;2023-12-20T02:19:43;19.60;99.90
16114;DHT22;8161;-33.910;151.156;2023-12-20T02:22:11;19.60;99.90
16114;DHT22;8161;-33.910;151.156;2023-12-20T02:24:38;19.70;99.90
16114;DHT22;8161;-33.910;151.156;2023-12-20T02:27:07;19.60;99.90
16114;DHT22;8161;-33.910;151.156;2023-12-20T02:29:37;19.60;99.90
16114;DHT22;8161;-33.910;151.156;2023-12-20T02:32:04;19.50;99.90
16114;DHT22;8161;-33.910;151.156;2023-12-20T02:34:32;19.40;99.90
16114;DHT22;8161;-33.910;151.156;2023-12-20T02:36:59;19.50;99.90
16114;DHT22;8161;-33.910;151.156;2023-12-20T02:39:26;19.40;99.90
16114;DHT22;8161;-33.910;151.156;2023-12-20T02:41:54;19.40;99.90
16114;DHT22;8161;-33.910;151.156;2023-12-20T02:44:21;19.40;99.90
16114;DHT22;8161;-33.910;151.156;2023-12-20T02:46:48;19.40;99.90
16114;DHT22;8161;-33.910;151.156;2023-12-20T02:49:15;19.30;99.90
16114;DHT22;8161;-33.910;151.156;2023-12-20T02:51:43;19.40;99.90
16114;DHT22;8161;-33.910;151.156;2023-12-20T02:54:10;19.30;99.90
16114;DHT22;8161;-33.910;151.156;2023-12-20T02:56:37;19.30;99.90
16114;DHT22;8161;-33.910;151.156;2023-12-20T02:59:05;19.40;99.90
16114;DHT22;8161;-33.910;151.156;2023-12-20T03:01:32;19.40;99.90
16114;DHT22;8161;-33.910;151.156;2023-12-20T03:04:00;19.40;99.90
16114;DHT22;8161;-33.910;151.156;2023-12-20T03:06:27;19.40;99.90
16114;DHT22;8161;-33.910;151.156;2023-12-20T03:08:54;19.50;99.90
16114;DHT22;8161;-33.910;151.156;2023-12-20T03:11:21;19.50;99.90
16114;DHT22;8161;-33.910;151.156;2023-12-20T03:13:49;19.50;99.90
16114;DHT22;8161;-33.910;151.156;2023-12-20T03:16:16;19.40;99.90
16114;DHT22;8161;-33.910;151.156;2023-12-20T03:18:43;19.50;99.90
16114;DHT22;8161;-33.910;151.156;2023-12-20T03:21:11;19.50;99.90
16114;DHT22;8161;-33.910;151.156;2023-12-20T03:23:38;19.50;99.90
16114;DHT22;8161;-33.910;151.156;2023-12-20T03:26:08;19.50;99.90
16114;DHT22;8161;-33.910;151.156;2023-12-20T03:28:36;19.30;99.90
16114;DHT22;8161;-33.910;151.156;2023-12-20T03:31:04;19.40;99.90
16114;DHT22;8161;-33.910;151.156;2023-12-20T03:33:31;19.40;99.90
16114;DHT22;8161;-33.910;151.156;2023-12-20T03:35:58;19.40;99.90
16114;DHT22;8161;-33.910;151.156;2023-12-20T03:38:25;19.50;99.90
16114;DHT22;8161;-33.910;151.156;2023-12-20T03:40:54;19.50;99.90
16114;DHT22;8161;-33.910;151.156;2023-12-20T03:43:21;19.60;99.90
16114;DHT22;8161;-33.910;151.156;2023-12-20T03:45:49;19.50;99.90
16114;DHT22;8161;-33.910;151.156;2023-12-20T03:48:16;19.40;99.90
16114;DHT22;8161;-33.910;151.156;2023-12-20T03:50:44;19.40;99.90
16114;DHT22;8161;-33.910;151.156;2023-12-20T03:53:11;19.40;99.90
16114;DHT22;8161;-33.910;151.156;2023-12-20T03:55:38;19.70;99.90
16114;DHT22;8161;-33.910;151.156;2023-12-20T03:58:05;19.40;99.90
16114;DHT22;8161;-33.910;151.156;2023-12-20T04:00:33;19.40;99.90
16114;DHT22;8161;-33.910;151.156;2023-12-20T04:03:00;19.40;99.90
16114;DHT22;8161;-33.910;151.156;2023-12-20T04:05:27;19.40;99.90
16114;DHT22;8161;-33.910;151.156;2023-12-20T04:07:55;19.40;99.90
16114;DHT22;8161;-33.910;151.156;2023-12-20T04:10:22;19.40;99.90
16114;DHT22;8161;-33.910;151.156;2023-12-20T04:12:49;19.40;99.90
16114;DHT22;8161;-33.910;151.156;2023-12-20T04:15:16;19.40;99.90
16114;DHT22;8161;-33.910;151.156;2023-12-20T04:17:46;19.50;99.90
16114;DHT22;8161;-33.910;151.156;2023-12-20T04:20:14;19.40;99.90
16114;DHT22;8161;-33.910;151.156;2023-12-20T04:22:41;19.40;99.90
16114;DHT22;8161;-33.910;151.156;2023-12-20T04:25:09;19.30;99.90
16114;DHT22;8161;-33.910;151.156;2023-12-20T04:27:36;19.30;99.90
16114;DHT22;8161;-33.910;151.156;2023-12-20T04:30:04;19.20;99.90
16114;DHT22;8161;-33.910;151.156;2023-12-20T04:32:31;19.20;99.90
16114;DHT22;8161;-33.910;151.156;2023-12-20T04:35:01;19.10;99.90
16114;DHT22;8161;-33.910;151.156;2023-12-20T04:37:28;19.10;99.90
16114;DHT22;8161;-33.910;151.156;2023-12-20T04:39:56;19.10;99.90
16114;DHT22;8161;-33.910;151.156;2023-12-20T04:42:23;19.10;99.90
16114;DHT22;8161;-33.910;151.156;2023-12-20T04:44:50;19.10;99.90
16114;DHT22;8161;-33.910;151.156;2023-12-20T04:47:17;19.20;99.90
16114;DHT22;8161;-33.910;151.156;2023-12-20T04:49:45;19.20;99.90
16114;DHT22;8161;-33.910;151.156;2023-12-20T04:52:12;19.20;99.90
16114;DHT22;8161;-33.910;151.156;2023-12-20T04:54:39;19.30;99.90
16114;DHT22;8161;-33.910;151.156;2023-12-20T04:57:06;19.30;99.90
16114;DHT22;8161;-33.910;151.156;2023-12-20T04:59:34;19.30;99.90
16114;DHT22;8161;-33.910;151.156;2023-12-20T05:02:01;19.30;99.90
16114;DHT22;8161;-33.910;151.156;2023-12-20T05:04:28;19.20;99.90
16114;DHT22;8161;-33.910;151.156;2023-12-20T05:06:55;19.10;99.90
16114;DHT22;8161;-33.910;151.156;2023-12-20T05:09:23;19.10;99.90
16114;DHT22;8161;-33.910;151.156;2023-12-20T05:11:50;19.10;99.90
16114;DHT22;8161;-33.910;151.156;2023-12-20T05:14:17;19.10;99.90
16114;DHT22;8161;-33.910;151.156;2023-12-20T05:16:44;19.10;99.90
16114;DHT22;8161;-33.910;151.156;2023-12-20T05:19:12;19.10;99.90
16114;DHT22;8161;-33.910;151.156;2023-12-20T05:21:40;19.10;99.90
16114;DHT22;8161;-33.910;151.156;2023-12-20T05:24:08;19.10;99.90
16114;DHT22;8161;-33.910;151.156;2023-12-20T05:26:35;19.00;99.90
16114;DHT22;8161;-33.910;151.156;2023-12-20T05:29:02;19.00;99.90
16114;DHT22;8161;-33.910;151.156;2023-12-20T05:31:30;19.00;99.90
16114;DHT22;8161;-33.910;151.156;2023-12-20T05:33:58;19.00;99.90
16114;DHT22;8161;-33.910;151.156;2023-12-20T05:36:25;19.00;99.90
16114;DHT22;8161;-33.910;151.156;2023-12-20T05:38:52;19.00;99.90
16114;DHT22;8161;-33.910;151.156;2023-12-20T05:41:20;19.10;99.90
16114;DHT22;8161;-33.910;151.156;2023-12-20T05:43:48;19.00;99.90
16114;DHT22;8161;-33.910;151.156;2023-12-20T05:46:15;19.10;99.90
16114;DHT22;8161;-33.910;151.156;2023-12-20T05:48:42;19.10;99.90
16114;DHT22;8161;-33.910;151.156;2023-12-20T05:51:12;19.10;99.90
16114;DHT22;8161;-33.910;151.156;2023-12-20T05:53:40;19.00;99.90
16114;DHT22;8161;-33.910;151.156;2023-12-20T05:56:07;19.00;99.90
16114;DHT22;8161;-33.910;151.156;2023-12-20T05:58:34;19.00;99.90
16114;DHT22;8161;-33.910;151.156;2023-12-20T06:01:04;19.00;99.90
16114;DHT22;8161;-33.910;151.156;2023-12-20T06:03:32;19.00;99.90
16114;DHT22;8161;-33.910;151.156;2023-12-20T06:05:59;19.10;99.90
16114;DHT22;8161;-33.910;151.156;2023-12-20T06:08:31;19.00;99.90
16114;DHT22;8161;-33.910;151.156;2023-12-20T06:10:58;19.10;99.90
16114;DHT22;8161;-33.910;151.156;2023-12-20T06:13:25;19.10;99.90
16114;DHT22;8161;-33.910;151.156;2023-12-20T06:15:55;19.10;99.90
16114;DHT22;8161;-33.910;151.156;2023-12-20T06:18:22;19.10;99.90
16114;DHT22;8161;-33.910;151.156;2023-12-20T06:20:51;19.10;99.90
16114;DHT22;8161;-33.910;151.156;2023-12-20T06:23:18;19.20;99.90
16114;DHT22;8161;-33.910;151.156;2023-12-20T06:25:45;19.20;99.90
16114;DHT22;8161;-33.910;151.156;2023-12-20T06:28:13;19.20;99.90
16114;DHT22;8161;-33.910;151.156;2023-12-20T06:30:41;19.10;99.90
16114;DHT22;8161;-33.910;151.156;2023-12-20T06:33:08;19.10;99.90
16114;DHT22;8161;-33.910;151.156;2023-12-20T06:35:37;19.10;99.90
16114;DHT22;8161;-33.910;151.156;2023-12-20T06:38:05;19.10;99.90
16114;DHT22;8161;-33.910;151.156;2023-12-20T06:40:32;19.10;99.90
16114;DHT22;8161;-33.910;151.156;2023-12-20T06:42:59;19.10;99.90
16114;DHT22;8161;-33.910;151.156;2023-12-20T06:45:27;19.10;99.90
16114;DHT22;8161;-33.910;151.156;2023-12-20T06:47:54;19.10;99.90
16114;DHT22;8161;-33.910;151.156;2023-12-20T06:50:25;19.00;99.90
16114;DHT22;8161;-33.910;151.156;2023-12-20T06:52:52;19.00;99.90
16114;DHT22;8161;-33.910;151.156;2023-12-20T06:55:19;18.90;99.90
16114;DHT22;8161;-33.910;151.156;2023-12-20T06:57:46;18.80;99.90
16114;DHT22;8161;-33.910;151.156;2023-12-20T07:00:14;18.80;99.90
16114;DHT22;8161;-33.910;151.156;2023-12-20T07:02:41;18.80;99.90
16114;DHT22;8161;-33.910;151.156;2023-12-20T07:05:09;18.70;99.90
16114;DHT22;8161;-33.910;151.156;2023-12-20T07:07:36;18.70;99.90
16114;DHT22;8161;-33.910;151.156;2023-12-20T07:10:03;18.70;99.90
16114;DHT22;8161;-33.910;151.156;2023-12-20T07:12:31;18.70;99.90
16114;DHT22;8161;-33.910;151.156;2023-12-20T07:14:58;18.70;99.90
16114;DHT22;8161;-33.910;151.156;2023-12-20T07:17:25;18.70;99.90
16114;DHT22;8161;-33.910;151.156;2023-12-20T07:19:52;18.60;99.90
16114;DHT22;8161;-33.910;151.156;2023-12-20T07:22:20;18.70;99.90
16114;DHT22;8161;-33.910;151.156;2023-12-20T07:24:47;18.70;99.90
16114;DHT22;8161;-33.910;151.156;2023-12-20T07:27:16;18.70;99.90
16114;DHT22;8161;-33.910;151.156;2023-12-20T07:29:43;18.70;99.90
16114;DHT22;8161;-33.910;151.156;2023-12-20T07:32:10;18.80;99.90
16114;DHT22;8161;-33.910;151.156;2023-12-20T07:34:37;18.70;99.90
16114;DHT22;8161;-33.910;151.156;2023-12-20T07:37:05;18.70;99.90
16114;DHT22;8161;-33.910;151.156;2023-12-20T07:39:37;18.80;99.90
16114;DHT22;8161;-33.910;151.156;2023-12-20T07:42:04;18.80;99.90
16114;DHT22;8161;-33.910;151.156;2023-12-20T07:44:32;18.80;99.90
16114;DHT22;8161;-33.910;151.156;2023-12-20T07:46:59;18.90;99.90
16114;DHT22;8161;-33.910;151.156;2023-12-20T07:49:27;18.90;99.90
16114;DHT22;8161;-33.910;151.156;2023-12-20T07:51:54;19.00;99.90
16114;DHT22;8161;-33.910;151.156;2023-12-20T07:54:22;19.00;99.90
16114;DHT22;8161;-33.910;151.156;2023-12-20T07:56:49;19.00;99.90
16114;DHT22;8161;-33.910;151.156;2023-12-20T07:59:17;19.00;99.90
16114;DHT22;8161;-33.910;151.156;2023-12-20T08:01:44;19.10;99.90
16114;DHT22;8161;-33.910;151.156;2023-12-20T08:04:14;19.10;99.90
16114;DHT22;8161;-33.910;151.156;2023-12-20T08:06:41;19.10;99.90
16114;DHT22;8161;-33.910;151.156;2023-12-20T08:09:08;19.10;99.90
16114;DHT22;8161;-33.910;151.156;2023-12-20T08:11:36;19.00;99.90
16114;DHT22;8161;-33.910;151.156;2023-12-20T08:14:04;18.90;99.90
16114;DHT22;8161;-33.910;151.156;2023-12-20T08:16:31;19.40;99.90
16114;DHT22;8161;-33.910;151.156;2023-12-20T08:18:58;18.90;99.90
16114;DHT22;8161;-33.910;151.156;2023-12-20T08:21:26;18.90;99.90
16114;DHT22;8161;-33.910;151.156;2023-12-20T08:23:54;18.80;99.90
16114;DHT22;8161;-33.910;151.156;2023-12-20T08:26:24;18.90;99.90
16114;DHT22;8161;-33.910;151.156;2023-12-20T08:28:51;18.90;99.90
16114;DHT22;8161;-33.910;151.156;2023-12-20T08:31:19;19.00;99.90
16114;DHT22;8161;-33.910;151.156;2023-12-20T08:33:50;18.90;99.90
16114;DHT22;8161;-33.910;151.156;2023-12-20T08:36:17;18.90;99.90
16114;DHT22;8161;-33.910;151.156;2023-12-20T08:38:45;18.90;99.90
16114;DHT22;8161;-33.910;151.156;2023-12-20T08:41:12;18.90;99.90
16114;DHT22;8161;-33.910;151.156;2023-12-20T08:43:39;18.90;99.90
16114;DHT22;8161;-33.910;151.156;2023-12-20T08:46:07;18.90;99.90
16114;DHT22;8161;-33.910;151.156;2023-12-20T08:48:36;18.90;99.90
16114;DHT22;8161;-33.910;151.156;2023-12-20T08:51:06;18.80;99.90
16114;DHT22;8161;-33.910;151.156;2023-12-20T08:53:35;18.80;99.90
16114;DHT22;8161;-33.910;151.156;2023-12-20T08:56:02;18.80;99.90
16114;DHT22;8161;-33.910;151.156;2023-12-20T08:58:29;18.80;99.90
16114;DHT22;8161;-33.910;151.156;2023-12-20T09:01:00;18.80;99.90
16114;DHT22;8161;-33.910;151.156;2023-12-20T09:03:27;18.80;99.90
16114;DHT22;8161;-33.910;151.156;2023-12-20T09:05:54;18.80;99.90
16114;DHT22;8161;-33.910;151.156;2023-12-20T09:08:24;18.80;99.90
16114;DHT22;8161;-33.910;151.156;2023-12-20T09:10:52;18.70;99.90
16114;DHT22;8161;-33.910;151.156;2023-12-20T09:13:19;18.80;99.90
16114;DHT22;8161;-33.910;151.156;2023-12-20T09:15:47;18.80;99.90
16114;DHT22;8161;-33.910;151.156;2023-12-20T09:18:14;18.80;99.90
16114;DHT22;8161;-33.910;151.156;2023-12-20T09:20:44;18.80;99.90
16114;DHT22;8161;-33.910;151.156;2023-12-20T09:23:11;18.80;99.90
16114;DHT22;8161;-33.910;151.156;2023-12-20T09:25:39;18.90;99.90
16114;DHT22;8161;-33.910;151.156;2023-12-20T09:28:06;18.90;99.90
16114;DHT22;8161;-33.910;151.156;2023-12-20T09:30:33;18.90;99.90
16114;DHT22;8161;-33.910;151.156;2023-12-20T09:33:02;18.90;99.90
16114;DHT22;8161;-33.910;151.156;2023-12-20T09:35:29;19.00;99.90
16114;DHT22;8161;-33.910;151.156;2023-12-20T09:37:57;18.90;99.90
16114;DHT22;8161;-33.910;151.156;2023-12-20T09:40:27;18.90;99.90
16114;DHT22;8161;-33.910;151.156;2023-12-20T09:43:02;19.00;99.90
16114;DHT22;8161;-33.910;151.156;2023-12-20T09:45:31;19.00;99.90
16114;DHT22;8161;-33.910;151.156;2023-12-20T09:47:59;19.00;99.90
16114;DHT22;8161;-33.910;151.156;2023-12-20T09:50:26;19.00;99.90
16114;DHT22;8161;-33.910;151.156;2023-12-20T09:52:54;19.00;99.90
16114;DHT22;8161;-33.910;151.156;2023-12-20T09:55:26;18.90;99.90
16114;DHT22;8161;-33.910;151.156;2023-12-20T09:57:55;18.90;99.90
16114;DHT22;8161;-33.910;151.156;2023-12-20T10:00:22;19.00;99.90
16114;DHT22;8161;-33.910;151.156;2023-12-20T10:03:00;18.90;99.90
16114;DHT22;8161;-33.910;151.156;2023-12-20T10:05:33;18.90;99.90
16114;DHT22;8161;-33.910;151.156;2023-12-20T10:08:01;19.00;99.90
16114;DHT22;8161;-33.910;151.156;2023-12-20T10:10:34;19.00;99.90
16114;DHT22;8161;-33.910;151.156;2023-12-20T10:13:06;19.70;99.90
16114;DHT22;8161;-33.910;151.156;2023-12-20T10:15:36;19.00;99.90
16114;DHT22;8161;-33.910;151.156;2023-12-20T10:18:04;19.10;99.90
16114;DHT22;8161;-33.910;151.156;2023-12-20T10:20:32;19.10;99.90
16114;DHT22;8161;-33.910;151.156;2023-12-20T10:23:00;19.00;99.90
16114;DHT22;8161;-33.910;151.156;2023-12-20T10:25:28;19.10;99.90
16114;DHT22;8161;-33.910;151.156;2023-12-20T10:30:36;19.10;99.90
16114;DHT22;8161;-33.910;151.156;2023-12-20T10:33:05;19.10;99.90
16114;DHT22;8161;-33.910;151.156;2023-12-20T10:35:32;19.10;99.90
16114;DHT22;8161;-33.910;151.156;2023-12-20T10:38:04;19.00;99.90
16114;DHT22;8161;-33.910;151.156;2023-12-20T10:40:35;19.00;99.90
16114;DHT22;8161;-33.910;151.156;2023-12-20T10:43:05;19.00;99.90
16114;DHT22;8161;-33.910;151.156;2023-12-20T10:45:33;19.00;99.90
16114;DHT22;8161;-33.910;151.156;2023-12-20T10:48:02;19.00;99.90
16114;DHT22;8161;-33.910;151.156;2023-12-20T10:50:30;18.90;99.90
16114;DHT22;8161;-33.910;151.156;2023-12-20T10:52:58;19.00;99.90
16114;DHT22;8161;-33.910;151.156;2023-12-20T10:55:26;19.00;99.90
16114;DHT22;8161;-33.910;151.156;2023-12-20T10:58:01;19.00;99.90
16114;DHT22;8161;-33.910;151.156;2023-12-20T11:00:30;19.10;99.90
16114;DHT22;8161;-33.910;151.156;2023-12-20T11:03:01;19.10;99.90
16114;DHT22;8161;-33.910;151.156;2023-12-20T11:06:02;19.20;99.90
16114;DHT22;8161;-33.910;151.156;2023-12-20T11:11:33;19.20;99.90
16114;DHT22;8161;-33.910;151.156;2023-12-20T11:14:06;19.40;99.90
16114;DHT22;8161;-33.910;151.156;2023-12-20T11:16:38;19.10;99.90
16114;DHT22;8161;-33.910;151.156;2023-12-20T11:19:06;19.20;99.90
16114;DHT22;8161;-33.910;151.156;2023-12-20T11:21:34;21.30;99.90
16114;DHT22;8161;-33.910;151.156;2023-12-20T11:24:02;19.20;99.90
16114;DHT22;8161;-33.910;151.156;2023-12-20T11:26:30;19.20;99.90
16114;DHT22;8161;-33.910;151.156;2023-12-20T11:31:55;19.10;99.90
16114;DHT22;8161;-33.910;151.156;2023-12-20T11:34:22;19.10;99.90
16114;DHT22;8161;-33.910;151.156;2023-12-20T11:37:00;19.10;99.90
16114;DHT22;8161;-33.910;151.156;2023-12-20T11:39:29;19.10;99.90
16114;DHT22;8161;-33.910;151.156;2023-12-20T11:41:57;19.00;99.90
16114;DHT22;8161;-33.910;151.156;2023-12-20T11:44:31;19.10;99.90
16114;DHT22;8161;-33.910;151.156;2023-12-20T11:46:59;19.10;99.90
16114;DHT22;8161;-33.910;151.156;2023-12-20T11:49:29;19.10;99.90
16114;DHT22;8161;-33.910;151.156;2023-12-20T11:51:57;19.10;99.90
16114;DHT22;8161;-33.910;151.156;2023-12-20T11:54:26;19.10;99.90
16114;DHT22;8161;-33.910;151.156;2023-12-20T11:56:53;19.10;99.90
16114;DHT22;8161;-33.910;151.156;2023-12-20T11:59:21;19.10;99.90
16114;DHT22;8161;-33.910;151.156;2023-12-20T12:01:50;19.10;99.90
16114;DHT22;8161;-33.910;151.156;2023-12-20T12:04:21;19.10;99.90
16114;DHT22;8161;-33.910;151.156;2023-12-20T12:06:48;19.10;99.90
16114;DHT22;8161;-33.910;151.156;2023-12-20T12:09:15;19.10;99.90
16114;DHT22;8161;-33.910;151.156;2023-12-20T12:11:43;19.10;99.90
16114;DHT22;8161;-33.910;151.156;2023-12-20T12:14:11;19.10;99.90
16114;DHT22;8161;-33.910;151.156;2023-12-20T12:16:41;19.10;99.90
16114;DHT22;8161;-33.910;151.156;2023-12-20T12:19:23;19.10;99.90
16114;DHT22;8161;-33.910;151.156;2023-12-20T12:24:37;19.10;99.90
16114;DHT22;8161;-33.910;151.156;2023-12-20T12:27:08;19.00;99.90
16114;DHT22;8161;-33.910;151.156;2023-12-20T12:29:35;19.00;99.90
16114;DHT22;8161;-33.910;151.156;2023-12-20T12:32:09;19.10;99.90
16114;DHT22;8161;-33.910;151.156;2023-12-20T12:34:37;19.10;99.90
16114;DHT22;8161;-33.910;151.156;2023-12-20T12:37:04;19.10;99.90
16114;DHT22;8161;-33.910;151.156;2023-12-20T12:39:32;19.10;99.90
16114;DHT22;8161;-33.910;151.156;2023-12-20T12:41:59;19.10;99.90
16114;DHT22;8161;-33.910;151.156;2023-12-20T12:44:27;19.10;99.90
16114;DHT22;8161;-33.910;151.156;2023-12-20T12:46:54;19.10;99.90
16114;DHT22;8161;-33.910;151.156;2023-12-20T12:49:21;19.30;99.90
16114;DHT22;8161;-33.910;151.156;2023-12-20T12:51:49;19.10;99.90
16114;DHT22;8161;-33.910;151.156;2023-12-20T12:54:16;19.10;99.90
16114;DHT22;8161;-33.910;151.156;2023-12-20T12:56:45;19.10;99.90
16114;DHT22;8161;-33.910;151.156;2023-12-20T12:59:17;19.20;99.90
16114;DHT22;8161;-33.910;151.156;2023-12-20T13:01:44;19.20;99.90
16114;DHT22;8161;-33.910;151.156;2023-12-20T13:04:11;19.20;99.90
16114;DHT22;8161;-33.910;151.156;2023-12-20T13:06:39;19.20;99.90
16114;DHT22;8161;-33.910;151.156;2023-12-20T13:09:08;19.10;99.90
16114;DHT22;8161;-33.910;151.156;2023-12-20T13:11:38;19.10;99.90
16114;DHT22;8161;-33.910;151.156;2023-12-20T13:14:06;19.10;99.90
16114;DHT22;8161;-33.910;151.156;2023-12-20T13:16:37;19.10;99.90
16114;DHT22;8161;-33.910;151.156;2023-12-20T13:19:04;19.10;99.90
16114;DHT22;8161;-33.910;151.156;2023-12-20T13:21:31;19.10;99.90
16114;DHT22;8161;-33.910;151.156;2023-12-20T13:23:58;19.10;99.90
16114;DHT22;8161;-33.910;151.156;2023-12-20T13:26:26;19.00;99.90
16114;DHT22;8161;-33.910;151.156;2023-12-20T13:28:54;19.00;99.90
16114;DHT22;8161;-33.910;151.156;2023-12-20T13:31:21;19.00;99.90
16114;DHT22;8161;-33.910;151.156;2023-12-20T13:33:49;19.00;99.90
16114;DHT22;8161;-33.910;151.156;2023-12-20T13:36:16;19.00;99.90
16114;DHT22;8161;-33.910;151.156;2023-12-20T13:38:44;19.00;99.90
16114;DHT22;8161;-33.910;151.156;2023-12-20T13:41:11;19.00;99.90
16114;DHT22;8161;-33.910;151.156;2023-12-20T13:43:38;19.00;99.90
16114;DHT22;8161;-33.910;151.156;2023-12-20T13:46:09;19.00;99.90
16114;DHT22;8161;-33.910;151.156;2023-12-20T13:48:36;19.00;99.90
16114;DHT22;8161;-33.910;151.156;2023-12-20T13:51:04;19.00;99.90
16114;DHT22;8161;-33.910;151.156;2023-12-20T13:53:32;19.00;99.90
16114;DHT22;8161;-33.910;151.156;2023-12-20T13:55:59;18.90;99.90
16114;DHT22;8161;-33.910;151.156;2023-12-20T13:58:27;18.90;99.90
16114;DHT22;8161;-33.910;151.156;2023-12-20T14:00:54;18.90;99.90
16114;DHT22;8161;-33.910;151.156;2023-12-20T14:03:22;18.90;99.90
16114;DHT22;8161;-33.910;151.156;2023-12-20T14:05:52;18.90;99.90
16114;DHT22;8161;-33.910;151.156;2023-12-20T14:08:19;19.00;99.90
16114;DHT22;8161;-33.910;151.156;2023-12-20T14:10:47;18.90;99.90
16114;DHT22;8161;-33.910;151.156;2023-12-20T14:13:14;18.90;99.90
16114;DHT22;8161;-33.910;151.156;2023-12-20T14:15:41;18.90;99.90
16114;DHT22;8161;-33.910;151.156;2023-12-20T14:18:11;18.80;99.90
16114;DHT22;8161;-33.910;151.156;2023-12-20T14:20:47;18.80;99.90
16114;DHT22;8161;-33.910;151.156;2023-12-20T14:23:17;18.80;99.90
16114;DHT22;8161;-33.910;151.156;2023-12-20T14:25:44;18.70;99.90
16114;DHT22;8161;-33.910;151.156;2023-12-20T14:28:15;18.70;99.90
16114;DHT22;8161;-33.910;151.156;2023-12-20T14:30:43;18.70;99.90
16114;DHT22;8161;-33.910;151.156;2023-12-20T14:33:10;18.70;99.90
16114;DHT22;8161;-33.910;151.156;2023-12-20T14:35:37;18.70;99.90
16114;DHT22;8161;-33.910;151.156;2023-12-20T14:38:04;18.70;99.90
16114;DHT22;8161;-33.910;151.156;2023-12-20T14:40:32;18.70;99.90
16114;DHT22;8161;-33.910;151.156;2023-12-20T14:42:59;18.70;99.90
16114;DHT22;8161;-33.910;151.156;2023-12-20T14:45:27;18.70;99.90
16114;DHT22;8161;-33.910;151.156;2023-12-20T14:47:58;18.70;99.90
16114;DHT22;8161;-33.910;151.156;2023-12-20T14:50:25;18.60;99.90
16114;DHT22;8161;-33.910;151.156;2023-12-20T14:52:52;18.70;99.90
16114;DHT22;8161;-33.910;151.156;2023-12-20T14:55:24;18.70;99.90
16114;DHT22;8161;-33.910;151.156;2023-12-20T14:57:53;18.70;99.90
16114;DHT22;8161;-33.910;151.156;2023-12-20T15:00:21;18.70;99.90
16114;DHT22;8161;-33.910;151.156;2023-12-20T15:02:48;18.80;99.90
16114;DHT22;8161;-33.910;151.156;2023-12-20T15:05:16;18.80;99.90
16114;DHT22;8161;-33.910;151.156;2023-12-20T15:07:44;18.80;99.90
16114;DHT22;8161;-33.910;151.156;2023-12-20T15:10:12;18.80;99.90
16114;DHT22;8161;-33.910;151.156;2023-12-20T15:12:42;18.80;99.90
16114;DHT22;8161;-33.910;151.156;2023-12-20T15:15:09;18.80;99.90
16114;DHT22;8161;-33.910;151.156;2023-12-20T15:17:40;18.80;99.90
16114;DHT22;8161;-33.910;151.156;2023-12-20T15:20:07;18.80;99.90